createdAt,value
2023-01-26T00:03:55.704Z,98.07
2023-01-26T00:08:57.604Z,97.67
2023-01-26T00:14:00.494Z,98.03
2023-01-26T00:19:02.912Z,98.36
2023-01-26T00:24:05.355Z,99.96
2023-01-26T00:29:07.014Z,100.00
2023-01-26T00:34:08.647Z,100.00
2023-01-26T00:39:10.265Z,99.86
2023-01-26T00:44:11.883Z,99.26
2023-01-26T00:49:13.452Z,98.50
2023-01-26T00:54:15.440Z,98.75
2023-01-26T00:59:17.137Z,98.54
2023-01-26T01:04:21.198Z,98.05
2023-01-26T01:09:22.831Z,98.28
2023-01-26T01:14:24.558Z,98.20
2023-01-26T01:19:27.313Z,98.65
2023-01-26T01:24:29.068Z,98.03
2023-01-26T01:29:30.701Z,97.85
2023-01-26T01:34:32.865Z,97.64
2023-01-26T01:39:34.470Z,97.76
2023-01-26T01:44:38.245Z,97.54
2023-01-26T01:49:50.171Z,97.66
2023-01-26T01:54:59.651Z,97.75
2023-01-26T02:00:09.732Z,98.21
2023-01-26T02:05:26.954Z,98.51
2023-01-26T02:10:30.111Z,98.26
2023-01-26T02:15:32.124Z,98.37
2023-01-26T02:20:58.199Z,98.34
2023-01-26T02:26:04.119Z,98.59
2023-01-26T02:31:06.306Z,98.76
2023-01-26T02:36:16.733Z,98.75
2023-01-26T02:41:37.603Z,98.80
2023-01-26T02:46:39.583Z,98.96
2023-01-26T02:51:41.587Z,98.96
2023-01-26T02:56:43.242Z,98.60
2023-01-26T03:01:44.960Z,98.56
2023-01-26T03:06:47.135Z,98.66
2023-01-26T03:11:48.809Z,98.85
2023-01-26T03:16:51.924Z,98.76
2023-01-26T03:22:11.921Z,98.61
2023-01-26T03:27:28.647Z,98.49
2023-01-26T03:32:36.188Z,99.06
2023-01-26T03:37:43.779Z,98.86
2023-01-26T03:43:10.721Z,98.85
2023-01-26T03:48:31.562Z,98.76
2023-01-26T03:53:52.718Z,98.82
2023-01-26T03:58:56.779Z,98.90
2023-01-26T04:04:19.437Z,98.53
2023-01-26T04:09:23.478Z,98.78
2023-01-26T04:14:49.224Z,98.68
2023-01-26T04:20:13.736Z,98.98
2023-01-26T04:25:20.057Z,98.71
2023-01-26T04:30:21.964Z,99.36
2023-01-26T04:35:23.949Z,99.12
2023-01-26T04:40:25.823Z,99.36
2023-01-26T04:45:28.901Z,100.00
2023-01-26T04:50:30.936Z,100.00
2023-01-26T04:55:32.795Z,100.00
2023-01-26T05:00:34.728Z,100.00
2023-01-26T05:05:38.900Z,100.00
2023-01-26T05:10:40.641Z,100.00
2023-01-26T05:16:16.105Z,100.00
2023-01-26T05:21:36.154Z,100.00
2023-01-26T05:26:38.083Z,100.00
2023-01-26T05:31:44.329Z,100.00
2023-01-26T05:36:46.140Z,100.00
2023-01-26T05:41:47.826Z,100.00
2023-01-26T05:47:03.785Z,100.00
2023-01-26T05:52:18.419Z,100.00
2023-01-26T05:57:20.602Z,100.00
2023-01-26T06:02:27.380Z,100.00
2023-01-26T06:07:30.264Z,100.00
2023-01-26T06:12:43.710Z,100.00
2023-01-26T06:18:08.325Z,100.00
2023-01-26T06:23:12.098Z,100.00
2023-01-26T06:28:17.214Z,100.00
2023-01-26T06:33:19.135Z,100.00
2023-01-26T06:38:20.888Z,100.00
2023-01-26T06:43:23.486Z,100.00
2023-01-26T06:48:26.791Z,100.00
2023-01-26T06:53:40.049Z,100.00
2023-01-26T06:59:17.064Z,100.00
2023-01-26T07:04:36.971Z,100.00
2023-01-26T07:09:38.675Z,100.00
2023-01-26T07:14:40.318Z,100.00
2023-01-26T07:19:41.923Z,100.00
2023-01-26T07:24:43.504Z,100.00
2023-01-26T07:29:46.440Z,100.00
2023-01-26T07:34:50.603Z,100.00
2023-01-26T07:39:52.451Z,100.00
2023-01-26T07:44:54.055Z,100.00
2023-01-26T07:49:55.686Z,100.00
2023-01-26T07:54:57.556Z,100.00
2023-01-26T07:59:59.220Z,100.00
2023-01-26T08:05:02.764Z,100.00
2023-01-26T08:10:04.728Z,100.00
2023-01-26T08:15:06.734Z,100.00
2023-01-26T08:20:09.527Z,100.00
2023-01-26T08:25:12.201Z,100.00
2023-01-26T08:30:15.048Z,100.00
2023-01-26T08:35:16.769Z,100.00
2023-01-26T08:40:18.411Z,100.00
2023-01-26T08:45:20.302Z,100.00
2023-01-26T08:50:21.944Z,100.00
2023-01-26T08:55:23.564Z,100.00
2023-01-26T09:00:27.706Z,100.00
2023-01-26T09:05:33.641Z,100.00
2023-01-26T09:10:37.840Z,100.00
2023-01-26T09:15:39.666Z,100.00
2023-01-26T09:20:42.006Z,100.00
2023-01-26T09:25:44.729Z,100.00
2023-01-26T09:30:46.392Z,100.00
2023-01-26T09:35:48.588Z,100.00
2023-01-26T09:41:12.988Z,100.00
2023-01-26T09:46:20.816Z,100.00
2023-01-26T09:51:34.809Z,100.00
2023-01-26T09:56:36.505Z,99.58
2023-01-26T10:01:46.110Z,99.22
2023-01-26T10:06:48.686Z,98.95
2023-01-26T10:12:04.691Z,98.62
2023-01-26T10:17:15.155Z,98.42
2023-01-26T10:22:25.199Z,98.39
2023-01-26T10:27:29.514Z,98.43
2023-01-26T10:32:32.196Z,98.08
2023-01-26T10:37:34.901Z,97.63
2023-01-26T10:42:38.265Z,98.02
2023-01-26T10:47:39.868Z,97.44
2023-01-26T10:52:58.228Z,97.16
2023-01-26T10:58:01.352Z,97.49
2023-01-26T11:03:12.250Z,97.27
2023-01-26T11:08:37.138Z,96.91
2023-01-26T11:13:38.770Z,96.98
2023-01-26T11:19:03.144Z,97.19
2023-01-26T11:24:14.050Z,96.77
2023-01-26T11:29:54.307Z,96.58
2023-01-26T11:35:21.703Z,96.28
2023-01-26T11:40:26.100Z,96.06
2023-01-26T11:45:58.508Z,96.17
2023-01-26T11:51:27.745Z,96.12
2023-01-26T11:56:41.576Z,96.27
2023-01-26T12:01:53.231Z,95.71
2023-01-26T12:07:05.282Z,95.82
2023-01-26T12:12:30.780Z,95.58
2023-01-26T12:17:44.534Z,95.20
2023-01-26T12:23:00.620Z,95.12
2023-01-26T12:28:19.849Z,95.41
2023-01-26T12:33:21.788Z,95.31
2023-01-26T12:38:48.230Z,95.04
2023-01-26T12:44:01.950Z,94.83
2023-01-26T12:49:18.464Z,94.56
2023-01-26T12:54:57.322Z,94.79
2023-01-26T13:00:27.527Z,94.81
2023-01-26T13:05:33.623Z,94.61
2023-01-26T13:10:53.549Z,94.67
2023-01-26T13:16:34.494Z,94.50
2023-01-26T13:21:41.317Z,93.71
2023-01-26T13:26:56.837Z,94.03
2023-01-26T13:32:21.572Z,94.38
2023-01-26T13:37:44.310Z,94.63
2023-01-26T13:43:00.320Z,94.34
2023-01-26T13:48:10.031Z,94.15
2023-01-26T13:53:33.033Z,94.00
2023-01-26T13:58:34.731Z,94.52
2023-01-26T14:03:36.516Z,94.62
2023-01-26T14:08:39.495Z,94.51
2023-01-26T14:13:41.360Z,94.25
2023-01-26T14:18:45.270Z,94.24
2023-01-26T14:23:54.234Z,94.29
2023-01-26T14:28:56.021Z,93.96
2023-01-26T14:33:59.178Z,93.80
2023-01-26T14:39:01.212Z,94.15
2023-01-26T14:44:07.407Z,94.74
2023-01-26T14:49:24.595Z,94.42
2023-01-26T14:54:31.068Z,94.51
2023-01-26T14:59:38.558Z,94.58
2023-01-26T15:04:43.870Z,94.76
2023-01-26T15:09:52.399Z,95.21
2023-01-26T15:14:58.997Z,95.24
2023-01-26T15:20:03.065Z,95.75
2023-01-26T15:25:20.758Z,95.82
2023-01-26T15:30:27.954Z,96.56
2023-01-26T15:35:34.826Z,97.68
2023-01-26T15:40:36.527Z,97.20
2023-01-26T15:45:40.200Z,98.17
2023-01-26T15:50:41.848Z,98.02
2023-01-26T15:55:44.643Z,97.41
2023-01-26T16:00:46.382Z,97.37
2023-01-26T16:05:48.911Z,97.41
2023-01-26T16:10:51.223Z,97.22
2023-01-26T16:15:54.323Z,98.51
2023-01-26T16:20:56.164Z,98.97
2023-01-26T16:26:00.126Z,99.04
2023-01-26T16:31:02.688Z,98.98
2023-01-26T16:36:04.977Z,98.79
2023-01-26T16:41:12.556Z,99.19
2023-01-26T16:46:14.359Z,99.62
2023-01-26T16:51:22.088Z,100.00
2023-01-26T16:56:24.797Z,100.00
2023-01-26T17:01:30.717Z,100.00
2023-01-26T17:06:32.659Z,100.00
2023-01-26T17:11:34.487Z,100.00
2023-01-26T17:16:37.031Z,100.00
2023-01-26T17:21:38.810Z,100.00
2023-01-26T17:26:41.099Z,100.00
2023-01-26T17:31:43.139Z,100.00
2023-01-26T17:36:46.106Z,100.00
2023-01-26T17:41:47.802Z,100.00
2023-01-26T17:46:49.379Z,100.00
2023-01-26T17:51:51.219Z,100.00
2023-01-26T17:56:53.011Z,100.00
2023-01-26T18:01:54.775Z,100.00
2023-01-26T18:06:56.660Z,99.86
2023-01-26T18:11:58.268Z,100.00
2023-01-26T18:16:59.885Z,100.00
2023-01-26T18:22:01.549Z,100.00
2023-01-26T18:27:03.159Z,100.00
2023-01-26T18:32:07.344Z,100.00
2023-01-26T18:37:12.817Z,100.00
2023-01-26T18:42:14.704Z,100.00
2023-01-26T18:47:19.684Z,100.00
2023-01-26T18:52:22.311Z,100.00
2023-01-26T18:57:23.990Z,100.00
2023-01-26T19:02:25.665Z,100.00
2023-01-26T19:07:27.312Z,100.00
2023-01-26T19:12:28.946Z,100.00
2023-01-26T19:17:32.768Z,100.00
2023-01-26T19:22:37.397Z,100.00
2023-01-26T19:27:40.358Z,100.00
2023-01-26T19:33:00.405Z,100.00
2023-01-26T19:38:02.100Z,100.00
2023-01-26T19:43:06.556Z,100.00
2023-01-26T19:48:08.325Z,100.00
2023-01-26T19:53:10.330Z,100.00
2023-01-26T19:58:11.977Z,99.85
2023-01-26T20:03:13.682Z,99.68
2023-01-26T20:08:15.310Z,99.26
2023-01-26T20:13:17.480Z,98.99
2023-01-26T20:18:19.119Z,99.44
2023-01-26T20:23:21.164Z,98.77
2023-01-26T20:28:22.788Z,98.39
2023-01-26T20:33:24.859Z,98.51
2023-01-26T20:38:26.736Z,98.26
2023-01-26T20:43:28.301Z,98.32
2023-01-26T20:48:29.906Z,98.43
2023-01-26T20:53:31.606Z,98.13
2023-01-26T20:58:35.477Z,98.20
2023-01-26T21:03:37.855Z,98.38
2023-01-26T21:08:40.290Z,98.10
2023-01-26T21:13:45.221Z,98.05
2023-01-26T21:18:46.878Z,97.88
2023-01-26T21:23:48.933Z,97.86
2023-01-26T21:28:52.673Z,97.87
2023-01-26T21:33:54.942Z,97.79
2023-01-26T21:38:58.994Z,97.46
2023-01-26T21:44:21.044Z,97.58
2023-01-26T21:49:23.905Z,97.34
2023-01-26T21:54:26.020Z,97.44
2023-01-26T21:59:31.909Z,97.82
2023-01-26T22:04:35.738Z,97.65
2023-01-26T22:09:38.862Z,97.67
2023-01-26T22:14:40.560Z,97.28
2023-01-26T22:19:42.399Z,97.50
2023-01-26T22:24:44.229Z,97.35
2023-01-26T22:29:46.038Z,97.33
2023-01-26T22:34:47.647Z,97.84
2023-01-26T22:39:49.944Z,97.36
2023-01-26T22:44:51.543Z,97.18
2023-01-26T22:49:53.129Z,97.07
2023-01-26T22:54:57.733Z,96.51
2023-01-26T22:59:59.699Z,96.60
2023-01-26T23:05:01.350Z,96.11
2023-01-26T23:10:03.028Z,95.89
2023-01-26T23:15:05.007Z,95.94
2023-01-26T23:20:07.546Z,95.28
2023-01-26T23:25:27.786Z,94.97
2023-01-26T23:30:30.127Z,95.18
2023-01-26T23:35:31.723Z,95.48
2023-01-26T23:40:34.554Z,95.52
2023-01-26T23:45:36.528Z,95.28
2023-01-26T23:50:38.721Z,95.62
2023-01-26T23:55:43.466Z,95.78
